Time;durP1;ratioP1;P1;durP2;ratioP2;P2;SDS_P1;SDS_P2;PMS_P1;PMS_P2;Temp;Humidity;BMP_temperature;BMP_pressure;BME280_temperature;BME280_humidity;BME280_pressure;Samples;Min_cycle;Max_cycle;Signal;HPM_P1;HPM_P2
2022/12/03 00:00:49;;;;;;;0.00;0.00;;;;;;;15.39;57.70;102815.19;2087262;28;20057;-74
2022/12/03 00:01:51;;;;;;;0.00;0.00;;;;;;;15.39;57.78;102812.47;2090332;28;20090;-74
2022/12/03 00:02:54;;;;;;;0.00;0.00;;;;;;;15.39;57.77;102812.47;2089340;28;20064;-74
2022/12/03 00:03:56;;;;;;;0.00;0.00;;;;;;;15.40;57.73;102813.25;2088416;28;20099;-74
2022/12/03 00:04:59;;;;;;;0.00;0.00;;;;;;;15.40;57.80;102807.81;2093929;28;20094;-74
2022/12/03 00:06:02;;;;;;;0.00;0.00;;;;;;;15.39;57.49;102811.66;2090882;28;20049;-74
2022/12/03 00:07:07;;;;;;;0.00;0.00;;;;;;;15.37;57.85;102808.44;2077405;28;20551;-74
2022/12/03 00:08:09;;;;;;;0.00;0.00;;;;;;;15.38;57.85;102810.84;2072558;28;20057;-74
2022/12/03 00:09:12;;;;;;;0.00;0.00;;;;;;;15.39;57.78;102809.75;2077941;28;20096;-74
2022/12/03 00:10:14;;;;;;;0.00;0.00;;;;;;;15.39;57.67;102808.94;2071632;28;20054;-74
2022/12/03 00:11:17;;;;;;;0.00;0.00;;;;;;;15.39;57.81;102811.66;2078746;28;20046;-74
2022/12/03 00:12:18;;;;;;;0.00;0.00;;;;;;;15.38;57.74;102805.41;2079073;28;20731;-74
2022/12/03 00:13:21;;;;;;;0.00;0.00;;;;;;;15.39;57.55;102800.78;2077457;28;20512;-74
2022/12/03 00:14:23;;;;;;;0.00;0.00;;;;;;;15.38;57.72;102802.69;2077879;28;20068;-74
2022/12/03 00:15:26;;;;;;;0.00;0.00;;;;;;;15.38;57.85;102804.59;2076272;28;20073;-74
2022/12/03 00:16:28;;;;;;;0.00;0.00;;;;;;;15.39;57.78;102806.22;2078626;28;20136;-74
2022/12/03 00:17:30;;;;;;;0.00;0.00;;;;;;;15.38;57.88;102805.41;2088420;28;20060;-74
2022/12/03 00:18:32;;;;;;;0.00;0.00;;;;;;;15.38;57.78;102802.69;2087383;28;20052;-74
2022/12/03 00:19:35;;;;;;;0.00;0.00;;;;;;;15.38;57.73;102799.16;2073777;28;20064;-74
2022/12/03 00:20:36;;;;;;;0.00;0.00;;;;;;;15.37;57.74;102806.53;2074888;28;20528;-74
2022/12/03 00:21:41;;;;;;;0.00;0.00;;;;;;;15.39;57.60;102800.78;2078863;28;20057;-74
2022/12/03 00:22:42;;;;;;;0.00;0.00;;;;;;;15.37;57.84;102798.34;2073699;28;20054;-74
2022/12/03 00:23:46;;;;;;;0.00;0.00;;;;;;;15.37;57.63;102798.34;2076048;28;20183;-74
2022/12/03 00:24:47;;;;;;;0.00;0.00;;;;;;;15.37;57.60;102792.09;2073827;28;20517;-74
2022/12/03 00:25:50;;;;;;;0.00;0.00;;;;;;;15.37;57.61;102798.34;2080210;28;20053;-74
2022/12/03 00:26:52;;;;;;;0.00;0.00;;;;;;;15.36;57.59;102801.41;2080000;28;20057;-74
2022/12/03 00:27:54;;;;;;;0.00;0.00;;;;;;;15.37;57.65;102792.09;2073808;28;20054;-74
2022/12/03 00:28:56;;;;;;;0.00;0.00;;;;;;;15.37;57.68;102792.91;2077095;28;20064;-74
2022/12/03 00:29:59;;;;;;;0.00;0.00;;;;;;;15.38;57.79;102791.00;2081099;28;20057;-74
2022/12/03 00:31:01;;;;;;;0.00;0.00;;;;;;;15.36;57.80;102788.59;2078418;28;20053;-74
2022/12/03 00:32:04;;;;;;;0.00;0.00;;;;;;;15.36;57.65;102791.31;2078934;28;20100;-74
2022/12/03 00:33:06;;;;;;;0.00;0.00;;;;;;;15.36;57.62;102785.88;2071834;28;20057;-74
2022/12/03 00:34:08;;;;;;;0.00;0.00;;;;;;;15.36;57.67;102785.88;2079698;28;20050;-74
2022/12/03 00:35:10;;;;;;;0.00;0.00;;;;;;;15.36;58.01;102785.88;2080460;28;20417;-74
2022/12/03 00:36:13;;;;;;;0.00;0.00;;;;;;;15.36;57.63;102791.31;2081253;28;20056;-74
2022/12/03 00:37:16;;;;;;;0.00;0.00;;;;;;;15.37;57.61;102795.63;2076646;28;20080;-75
2022/12/03 00:38:18;;;;;;;0.00;0.00;;;;;;;15.36;57.58;102785.88;2079810;28;20046;-74
2022/12/03 00:39:20;;;;;;;0.00;0.00;;;;;;;15.35;57.57;102786.97;2075996;28;20595;-74
2022/12/03 00:40:23;;;;;;;0.00;0.00;;;;;;;15.35;57.90;102792.44;2066505;28;20577;-75
2022/12/03 00:41:25;;;;;;;0.00;0.00;;;;;;;15.36;57.77;102782.34;2080393;28;20053;-74
2022/12/03 00:42:28;;;;;;;0.00;0.00;;;;;;;15.35;57.72;102788.94;2073701;28;20104;-74
2022/12/03 00:43:30;;;;;;;0.00;0.00;;;;;;;15.36;57.70;102782.34;2074694;28;20060;-74
2022/12/03 00:44:33;;;;;;;0.00;0.00;;;;;;;15.35;57.69;102789.72;2080001;28;20054;-75
2022/12/03 00:45:35;;;;;;;0.00;0.00;;;;;;;15.34;57.62;102788.13;2072035;28;20050;-74
2022/12/03 00:46:37;;;;;;;0.00;0.00;;;;;;;15.34;57.96;102788.13;2080349;28;20076;-74
2022/12/03 00:47:40;;;;;;;0.00;0.00;;;;;;;15.36;57.75;102783.16;2075920;28;20050;-74
2022/12/03 00:48:42;;;;;;;0.00;0.00;;;;;;;15.34;57.54;102785.41;2078869;28;20521;-74
2022/12/03 00:49:45;;;;;;;0.00;0.00;;;;;;;15.35;57.67;102778.03;2072891;28;20600;-74
2022/12/03 00:50:48;;;;;;;0.00;0.00;;;;;;;15.35;57.67;102786.97;2080441;28;20080;-74
2022/12/03 00:51:51;;;;;;;0.00;0.00;;;;;;;15.34;57.58;102788.13;2080741;28;20087;-74
2022/12/03 00:52:55;;;;;;;0.00;0.00;;;;;;;15.36;57.70;102779.63;2073475;28;20050;-74
2022/12/03 00:53:57;;;;;;;0.00;0.00;;;;;;;15.36;57.74;102787.78;2075390;28;20553;-74
2022/12/03 00:55:00;;;;;;;0.00;0.00;;;;;;;15.36;57.68;102785.88;2077971;28;20056;-74
2022/12/03 00:56:02;;;;;;;0.00;0.00;;;;;;;15.34;57.72;102776.41;2074931;28;20084;-74
2022/12/03 00:57:04;;;;;;;0.00;0.00;;;;;;;15.38;57.72;102782.84;2077254;28;20060;-74
2022/12/03 00:58:07;;;;;;;0.00;0.00;;;;;;;15.38;57.62;102786.34;2073339;28;20057;-74
2022/12/03 00:59:09;;;;;;;0.00;0.00;;;;;;;15.39;57.79;102784.44;2075520;28;20525;-73
2022/12/03 01:00:12;;;;;;;0.00;0.00;;;;;;;15.42;57.84;102783.78;2078794;28;20050;-74
2022/12/03 01:01:15;;;;;;;0.00;0.00;;;;;;;15.41;57.76;102783.03;2074962;28;20064;-74
2022/12/03 01:02:17;;;;;;;0.00;0.00;;;;;;;15.43;57.66;102774.53;2074816;28;20687;-74
2022/12/03 01:03:20;;;;;;;0.00;0.00;;;;;;;15.44;57.56;102776.09;2081039;28;20068;-74
2022/12/03 01:04:22;;;;;;;0.00;0.00;;;;;;;15.45;57.70;102772.25;2078236;28;20060;-74
2022/12/03 01:05:25;;;;;;;0.00;0.00;;;;;;;15.45;57.83;102774.97;2074809;28;20108;-74
2022/12/03 01:06:26;;;;;;;0.00;0.00;;;;;;;15.45;57.65;102773.06;2079050;28;20072;-74
2022/12/03 01:07:29;;;;;;;0.00;0.00;;;;;;;15.47;57.79;102770.81;2072689;28;20069;-74
2022/12/03 01:08:33;;;;;;;0.00;0.00;;;;;;;15.49;57.62;102767.75;2078167;28;20533;-74
2022/12/03 01:09:35;;;;;;;0.00;0.00;;;;;;;15.47;57.59;102770.81;2071803;28;20061;-74
2022/12/03 01:10:37;;;;;;;0.00;0.00;;;;;;;15.49;58.01;102763.09;2079216;28;20099;-74
2022/12/03 01:11:40;;;;;;;0.00;0.00;;;;;;;15.48;57.90;102764.25;2072580;28;20104;-74
2022/12/03 01:12:42;;;;;;;0.00;0.00;;;;;;;15.50;57.58;102764.72;2078161;28;20053;-74
2022/12/03 01:13:45;;;;;;;0.00;0.00;;;;;;;15.50;57.75;102762.00;2074733;28;20477;-74
2022/12/03 01:14:47;;;;;;;0.00;0.00;;;;;;;15.52;57.69;102765.19;2075085;28;20053;-74
2022/12/03 01:15:49;;;;;;;0.00;0.00;;;;;;;15.52;57.63;102765.19;2079296;28;20111;-74
2022/12/03 01:16:51;;;;;;;0.00;0.00;;;;;;;15.53;57.53;102764.06;2080459;28;20114;-74
2022/12/03 01:17:54;;;;;;;0.00;0.00;;;;;;;15.53;57.54;102769.50;2075048;28;20057;-74
2022/12/03 01:18:56;;;;;;;0.00;0.00;;;;;;;15.55;57.74;102770.00;2077674;28;20490;-74
2022/12/03 01:20:00;;;;;;;0.00;0.00;;;;;;;15.55;57.57;102767.25;2078135;28;20053;-74
2022/12/03 01:21:02;;;;;;;0.00;0.00;;;;;;;15.55;57.57;102770.00;2078784;28;20041;-74
2022/12/03 01:22:04;;;;;;;0.00;0.00;;;;;;;15.56;57.56;102768.84;2080240;28;20081;-74
2022/12/03 01:23:07;;;;;;;0.00;0.00;;;;;;;15.58;57.65;102765.81;2074100;28;20128;-74
2022/12/03 01:24:12;;;;;;;0.00;0.00;;;;;;;15.58;57.52;102774.78;2075574;28;20493;-74
2022/12/03 01:25:14;;;;;;;0.00;0.00;;;;;;;15.59;57.43;102772.84;2079944;28;20057;-74
2022/12/03 01:26:16;;;;;;;0.00;0.00;;;;;;;15.59;57.77;102775.56;2072973;28;20486;-74
2022/12/03 01:27:18;;;;;;;0.00;0.00;;;;;;;15.60;57.71;102774.44;2075431;28;20497;-74
2022/12/03 01:28:21;;;;;;;0.00;0.00;;;;;;;15.60;57.71;102772.50;2073479;28;20046;-74
2022/12/03 01:29:23;;;;;;;0.00;0.00;;;;;;;15.61;57.67;102776.03;2076017;28;20065;-75
2022/12/03 01:30:26;;;;;;;0.00;0.00;;;;;;;15.59;57.71;102773.63;2077271;28;20066;-74
2022/12/03 01:32:48;;;;;;;0.00;0.00;;;;;;;15.58;57.83;102777.50;2074768;28;20089;-74
2022/12/03 01:33:50;;;;;;;0.00;0.00;;;;;;;15.61;57.70;102768.66;2079426;28;20061;-74
2022/12/03 01:34:55;;;;;;;0.00;0.00;;;;;;;15.63;57.55;102769.16;2074331;28;20100;-74
2022/12/03 01:35:57;;;;;;;0.00;0.00;;;;;;;15.63;57.64;102771.06;2075179;28;20078;-74
2022/12/03 01:37:00;;;;;;;0.00;0.00;;;;;;;15.64;57.52;102770.75;2068359;28;20061;-74
2022/12/03 01:38:02;;;;;;;0.00;0.00;;;;;;;15.64;57.54;102773.47;2072585;28;20054;-73
2022/12/03 01:39:05;;;;;;;0.00;0.00;;;;;;;15.65;57.67;102772.31;2071727;28;20100;-74
2022/12/03 01:40:15;;;;;;;0.00;0.00;;;;;;;15.65;57.39;102769.59;2071686;28;20054;-74
2022/12/03 01:41:18;;;;;;;0.00;0.00;;;;;;;15.63;57.77;102773.78;2078141;28;20052;-74
2022/12/03 01:42:23;;;;;;;0.00;0.00;;;;;;;15.66;57.56;102767.69;2077803;28;20057;-74
2022/12/03 01:43:28;;;;;;;0.00;0.00;;;;;;;15.66;57.49;102767.69;2076701;28;20066;-74
2022/12/03 01:44:33;;;;;;;0.00;0.00;;;;;;;15.67;57.46;102772.81;2076456;28;20486;-74
2022/12/03 01:45:35;;;;;;;0.00;0.00;;;;;;;15.66;57.65;102767.69;2078241;28;20065;-74
2022/12/03 01:46:41;;;;;;;0.00;0.00;;;;;;;15.66;57.48;102763.03;2079404;28;20100;-74
2022/12/03 01:47:43;;;;;;;0.00;0.00;;;;;;;15.67;57.59;102769.28;2072106;28;20062;-74
2022/12/03 01:48:47;;;;;;;0.00;0.00;;;;;;;15.69;57.68;102767.03;2080031;28;20049;-74
2022/12/03 01:49:52;;;;;;;0.00;0.00;;;;;;;15.67;57.63;102766.56;2074823;28;20089;-74
2022/12/03 01:50:55;;;;;;;0.00;0.00;;;;;;;15.67;57.57;102761.91;2070178;28;20061;-74
2022/12/03 01:51:57;;;;;;;0.00;0.00;;;;;;;15.69;57.57;102770.56;2070321;28;20544;-74
2022/12/03 01:53:03;;;;;;;0.00;0.00;;;;;;;15.70;57.48;102758.53;2074942;28;20081;-74
2022/12/03 01:54:05;;;;;;;0.00;0.00;;;;;;;15.70;57.37;102763.16;2072616;28;20057;-74
2022/12/03 01:55:14;;;;;;;0.00;0.00;;;;;;;15.70;57.58;102763.97;2074600;28;20060;-74
2022/12/03 01:56:17;;;;;;;0.00;0.00;;;;;;;15.69;57.48;102764.31;2073974;28;20475;-74
2022/12/03 01:57:24;;;;;;;0.00;0.00;;;;;;;15.71;57.65;102753.88;2077929;28;20056;-74
2022/12/03 01:58:27;;;;;;;0.00;0.00;;;;;;;15.71;57.48;102753.88;2074012;28;20136;-73
2022/12/03 01:59:37;;;;;;;0.00;0.00;;;;;;;15.69;57.25;102759.66;2077476;28;20081;-74
2022/12/03 02:00:39;;;;;;;0.00;0.00;;;;;;;15.69;57.39;102758.84;2077638;28;20072;-73
2022/12/03 02:01:42;;;;;;;0.00;0.00;;;;;;;15.70;57.36;102752.28;2074230;28;20434;-74
2022/12/03 02:02:45;;;;;;;0.00;0.00;;;;;;;15.71;57.37;102757.41;2080158;28;20808;-74
2022/12/03 02:03:48;;;;;;;0.00;0.00;;;;;;;15.70;57.39;102755.81;2079062;28;20058;-74
2022/12/03 02:04:52;;;;;;;0.00;0.00;;;;;;;15.72;57.31;102761.72;2078334;28;20501;-74
2022/12/03 02:05:55;;;;;;;0.00;0.00;;;;;;;15.71;57.26;102756.63;2078926;28;20096;-74
2022/12/03 02:07:16;;;;;;;0.00;0.00;;;;;;;15.65;57.19;102755.97;2072608;28;20061;-74
2022/12/03 02:08:28;;;;;;;;;;;;;;;15.50;57.59;102759.28;2075930;28;20050;-74
2022/12/03 02:09:30;;;;;;;0.00;0.00;;;;;;;15.61;57.49;102759.69;2071940;28;20418;-74
2022/12/03 02:10:37;;;;;;;0.00;0.00;;;;;;;15.65;57.41;102764.16;2080154;28;20128;-74
2022/12/03 02:11:44;;;;;;;0.00;0.00;;;;;;;15.66;57.26;102757.59;2073220;28;20423;-74
2022/12/03 02:12:50;;;;;;;0.00;0.00;;;;;;;15.68;57.37;102754.53;2074389;28;20575;-74
2022/12/03 02:13:56;;;;;;;0.00;0.00;;;;;;;15.68;57.10;102758.03;2073237;28;20058;-74
2022/12/03 02:14:59;;;;;;;0.00;0.00;;;;;;;15.68;57.39;102766.22;2075629;28;20089;-74
2022/12/03 02:16:02;;;;;;;0.00;0.00;;;;;;;15.69;57.09;102756.94;2073194;28;20493;-74
2022/12/03 02:17:05;;;;;;;0.00;0.00;;;;;;;15.68;57.29;102758.03;2077063;28;20061;-74
2022/12/03 02:18:08;;;;;;;0.00;0.00;;;;;;;15.70;57.11;102763.16;2073616;28;20104;-74
2022/12/03 02:19:20;;;;;;;0.00;0.00;;;;;;;15.68;57.25;102754.53;2073942;28;20061;-74
2022/12/03 02:20:23;;;;;;;0.00;0.00;;;;;;;15.68;57.29;102765.44;2077338;28;20049;-74
2022/12/03 02:21:34;;;;;;;0.00;0.00;;;;;;;15.66;56.93;102757.59;2076806;28;20068;-74
2022/12/03 02:22:48;;;;;;;0.00;0.00;;;;;;;15.65;57.10;102760.66;2074147;28;20066;-74
2022/12/03 02:24:00;;;;;;;0.00;0.00;;;;;;;15.64;57.25;102759.84;2078071;28;20053;-74
2022/12/03 02:25:11;;;;;;;0.00;0.00;;;;;;;15.65;57.17;102758.72;2078260;28;20057;-73
2022/12/03 02:26:12;;;;;;;0.00;0.00;;;;;;;15.64;57.25;102754.41;2078354;28;20053;-74
2022/12/03 02:27:15;;;;;;;0.00;0.00;;;;;;;15.65;57.22;102750.53;2076614;28;20084;-74
2022/12/03 02:28:17;;;;;;;0.00;0.00;;;;;;;15.65;57.12;102745.09;2073838;28;20049;-74
2022/12/03 02:29:21;;;;;;;0.00;0.00;;;;;;;15.67;57.21;102753.75;2065953;28;20128;-74
2022/12/03 02:30:25;;;;;;;0.00;0.00;;;;;;;15.68;57.19;102758.03;2065931;28;20050;-74
2022/12/03 02:31:28;;;;;;;0.00;0.00;;;;;;;15.65;57.43;102750.53;2078811;28;20085;-74
2022/12/03 02:32:30;;;;;;;0.00;0.00;;;;;;;15.63;57.23;102750.09;2078144;28;20091;-74
2022/12/03 02:33:33;;;;;;;0.00;0.00;;;;;;;15.66;57.15;102749.44;2078650;28;20048;-74
2022/12/03 02:34:38;;;;;;;0.00;0.00;;;;;;;15.67;56.98;102751.00;2078024;28;20090;-74
2022/12/03 02:35:41;;;;;;;0.00;0.00;;;;;;;15.65;57.35;102738.88;2077695;28;20501;-73
2022/12/03 02:36:43;;;;;;;0.00;0.00;;;;;;;15.65;57.27;102745.09;2071548;28;20054;-74
2022/12/03 02:37:47;;;;;;;0.00;0.00;;;;;;;15.66;57.22;102745.91;2076803;28;20058;-74
2022/12/03 02:38:49;;;;;;;0.00;0.00;;;;;;;15.64;57.08;102737.25;2078516;28;20053;-74
2022/12/03 02:39:55;;;;;;;0.00;0.00;;;;;;;15.65;56.76;102739.66;2079671;28;20080;-74
2022/12/03 02:41:02;;;;;;;0.00;0.00;;;;;;;15.64;57.19;102740.78;2075268;28;20417;-74
2022/12/03 02:43:26;;;;;;;0.00;0.00;;;;;;;15.59;57.52;102737.44;2078748;28;20057;-74
2022/12/03 02:44:28;;;;;;;0.00;0.00;;;;;;;15.60;57.14;102739.81;2078420;28;20778;-74
2022/12/03 02:45:34;;;;;;;0.00;0.00;;;;;;;15.61;57.35;102736.00;2074109;28;20056;-74
2022/12/03 02:46:35;;;;;;;0.00;0.00;;;;;;;15.61;57.49;102740.63;2076705;28;20080;-74
2022/12/03 02:47:42;;;;;;;0.00;0.00;;;;;;;15.61;57.40;102738.72;2074082;28;20175;-74
2022/12/03 02:48:44;;;;;;;0.00;0.00;;;;;;;15.59;57.40;102732.00;2074462;28;20049;-74
2022/12/03 02:49:47;;;;;;;0.00;0.00;;;;;;;15.60;57.36;102741.78;2073913;28;20064;-74
2022/12/03 02:50:53;;;;;;;0.00;0.00;;;;;;;15.60;57.16;102742.56;2066071;28;20058;-74
2022/12/03 02:51:55;;;;;;;0.00;0.00;;;;;;;15.59;57.28;102740.97;2075931;28;20089;-74
2022/12/03 02:53:00;;;;;;;0.00;0.00;;;;;;;15.59;57.29;102742.88;2077464;28;20152;-74
2022/12/03 02:54:02;;;;;;;0.00;0.00;;;;;;;15.59;57.26;102735.53;2072721;28;20076;-74
2022/12/03 02:55:07;;;;;;;0.00;0.00;;;;;;;15.59;57.37;102730.06;2073536;28;20050;-74
2022/12/03 02:56:13;;;;;;;0.00;0.00;;;;;;;15.59;57.33;102734.72;2074989;28;20058;-74
2022/12/03 02:57:16;;;;;;;0.00;0.00;;;;;;;15.58;57.48;102738.56;2075096;28;20058;-74
2022/12/03 02:58:19;;;;;;;0.00;0.00;;;;;;;15.56;57.47;102730.72;2077581;28;20595;-74
2022/12/03 02:59:22;;;;;;;0.00;0.00;;;;;;;15.58;57.41;102744.81;2074699;28;20053;-74
2022/12/03 03:00:24;;;;;;;0.00;0.00;;;;;;;15.57;57.24;102737.75;2079079;28;20053;-74
2022/12/03 03:01:27;;;;;;;0.00;0.00;;;;;;;15.58;57.37;102739.38;2079837;28;20064;-74
2022/12/03 03:02:29;;;;;;;0.00;0.00;;;;;;;15.58;57.22;102738.56;2078766;28;20704;-74
2022/12/03 03:03:33;;;;;;;0.00;0.00;;;;;;;15.57;57.32;102737.75;2064083;28;20504;-74
2022/12/03 03:04:36;;;;;;;0.00;0.00;;;;;;;15.56;57.47;102741.63;2070576;28;20593;-74
2022/12/03 03:05:40;;;;;;;0.00;0.00;;;;;;;15.58;57.27;102738.56;2074015;28;20069;-74
2022/12/03 03:06:42;;;;;;;0.00;0.00;;;;;;;15.56;57.41;102736.19;2081775;28;20067;-74
2022/12/03 03:07:45;;;;;;;0.00;0.00;;;;;;;15.56;57.38;102736.19;2081960;28;20053;-74
2022/12/03 03:08:47;;;;;;;0.00;0.00;;;;;;;15.55;57.42;102734.59;2082614;28;20060;-74
2022/12/03 03:09:50;;;;;;;0.00;0.00;;;;;;;15.55;57.45;102737.31;2088854;28;20067;-74
2022/12/03 03:10:53;;;;;;;0.00;0.00;;;;;;;15.56;57.32;102738.91;2090966;28;20057;-74
2022/12/03 03:11:57;;;;;;;0.00;0.00;;;;;;;15.55;57.46;102737.31;2087058;28;20088;-74
2022/12/03 03:13:03;;;;;;;0.00;0.00;;;;;;;15.53;57.30;102736.84;2087492;28;20053;-74
2022/12/03 03:14:06;;;;;;;0.00;0.00;;;;;;;15.54;57.37;102738.41;2092446;28;20056;-74
2022/12/03 03:15:10;;;;;;;0.00;0.00;;;;;;;15.54;57.22;102735.69;2084851;28;20138;-74
2022/12/03 03:16:13;;;;;;;0.00;0.00;;;;;;;15.53;57.32;102736.84;2082630;28;20125;-74
2022/12/03 03:17:15;;;;;;;0.00;0.00;;;;;;;15.54;57.38;102737.66;2096336;28;20496;-73
2022/12/03 03:18:18;;;;;;;0.00;0.00;;;;;;;15.53;57.27;102741.47;2093516;28;20064;-74
2022/12/03 03:19:22;;;;;;;0.00;0.00;;;;;;;15.53;57.29;102725.94;2094575;28;20185;-73
2022/12/03 03:20:25;;;;;;;0.00;0.00;;;;;;;15.53;57.43;102741.47;2092846;28;20101;-74
2022/12/03 03:21:27;;;;;;;0.00;0.00;;;;;;;15.53;57.26;102725.13;2096400;28;20068;-74
2022/12/03 03:22:33;;;;;;;0.00;0.00;;;;;;;15.53;57.30;102741.47;2095957;28;20048;-74
2022/12/03 03:23:35;;;;;;;0.00;0.00;;;;;;;15.51;57.29;102733.63;2087287;28;20049;-74
2022/12/03 03:24:38;;;;;;;0.00;0.00;;;;;;;15.51;57.41;102736.34;2087138;28;20064;-74
2022/12/03 03:25:42;;;;;;;0.00;0.00;;;;;;;15.52;57.43;102735.25;2081434;28;20517;-74
2022/12/03 03:26:45;;;;;;;0.00;0.00;;;;;;;15.51;57.39;102733.63;2083026;28;20084;-74
2022/12/03 03:27:49;;;;;;;0.00;0.00;;;;;;;15.52;57.46;102740.69;2079670;28;20092;-74
2022/12/03 03:28:52;;;;;;;0.00;0.00;;;;;;;15.51;57.47;102743.72;2082507;28;20739;-74
2022/12/03 03:29:56;;;;;;;0.00;0.00;;;;;;;15.51;57.58;102739.06;2088921;28;20060;-74
2022/12/03 03:31:02;;;;;;;0.00;0.00;;;;;;;15.51;57.42;102744.53;2088816;28;20092;-74
2022/12/03 03:32:04;;;;;;;0.00;0.00;;;;;;;15.50;57.43;102745.66;2092256;28;20055;-74
2022/12/03 03:33:08;;;;;;;0.00;0.00;;;;;;;15.51;57.32;102732.81;2090156;28;20052;-74
2022/12/03 03:34:10;;;;;;;0.00;0.00;;;;;;;15.50;57.22;102742.13;2089112;28;20442;-74
2022/12/03 03:35:13;;;;;;;0.00;0.00;;;;;;;15.50;57.56;102751.09;2088842;28;20045;-74
2022/12/03 03:36:15;;;;;;;0.00;0.00;;;;;;;15.50;57.53;102748.38;2088763;28;20053;-74
2022/12/03 03:37:18;;;;;;;0.00;0.00;;;;;;;15.49;57.39;102744.03;2090602;28;20059;-74
2022/12/03 03:38:22;;;;;;;0.00;0.00;;;;;;;15.50;57.13;102745.66;2088598;28;20457;-74
2022/12/03 03:39:25;;;;;;;0.00;0.00;;;;;;;15.50;57.43;102747.56;2085650;28;20053;-74
2022/12/03 03:40:27;;;;;;;0.00;0.00;;;;;;;15.49;57.39;102746.75;2077243;28;20068;-74
2022/12/03 03:41:31;;;;;;;0.00;0.00;;;;;;;15.49;57.28;102740.53;2074319;28;20050;-74
2022/12/03 03:42:33;;;;;;;0.00;0.00;;;;;;;15.49;57.27;102743.28;2074011;28;20064;-74
2022/12/03 03:43:38;;;;;;;0.00;0.00;;;;;;;15.50;57.36;102739.41;2079788;28;20084;-74
2022/12/03 03:44:40;;;;;;;0.00;0.00;;;;;;;15.49;57.20;102746.00;2083356;28;20049;-74
2022/12/03 03:45:44;;;;;;;0.00;0.00;;;;;;;15.49;57.30;102743.28;2085324;28;20868;-71
2022/12/03 03:46:47;;;;;;;0.00;0.00;;;;;;;15.48;57.53;102737.00;2088993;28;20443;-71
2022/12/03 03:47:50;;;;;;;0.00;0.00;;;;;;;15.48;57.45;102738.94;2089902;28;20045;-71
2022/12/03 03:48:52;;;;;;;0.00;0.00;;;;;;;15.47;57.33;102740.88;2089579;28;20053;-71
2022/12/03 03:49:55;;;;;;;0.00;0.00;;;;;;;15.46;57.41;102739.25;2073347;28;20058;-71
2022/12/03 03:50:57;;;;;;;0.00;0.00;;;;;;;15.46;57.33;102739.25;2071942;28;20058;-71
2022/12/03 03:52:00;;;;;;;0.00;0.00;;;;;;;15.46;57.56;102736.53;2079662;28;20505;-71
2022/12/03 03:53:03;;;;;;;0.00;0.00;;;;;;;15.48;57.39;102739.75;2080748;28;20068;-71
2022/12/03 03:54:08;;;;;;;0.00;0.00;;;;;;;15.47;57.35;102743.59;2089378;28;20086;-72
2022/12/03 03:55:11;;;;;;;0.00;0.00;;;;;;;15.47;57.37;102743.59;2088659;28;20060;-72
2022/12/03 03:56:15;;;;;;;0.00;0.00;;;;;;;15.45;57.52;102745.84;2080664;28;20077;-72
2022/12/03 03:57:17;;;;;;;0.00;0.00;;;;;;;15.46;57.41;102746.66;2081900;28;20064;-72
2022/12/03 03:58:20;;;;;;;0.00;0.00;;;;;;;15.46;57.54;102750.16;2087996;28;20089;-72
2022/12/03 03:59:23;;;;;;;0.00;0.00;;;;;;;15.47;57.64;102746.31;2088264;28;20049;-72
2022/12/03 04:00:26;;;;;;;0.00;0.00;;;;;;;15.46;57.42;102743.94;2079361;28;20580;-71
2022/12/03 04:01:28;;;;;;;0.00;0.00;;;;;;;15.46;57.43;102746.66;2077277;28;20524;-71
2022/12/03 04:02:32;;;;;;;0.00;0.00;;;;;;;15.46;57.59;102747.44;2074513;28;20057;-72
2022/12/03 04:03:34;;;;;;;0.00;0.00;;;;;;;15.43;57.42;102742.63;2086993;28;20064;-71
2022/12/03 04:04:36;;;;;;;0.00;0.00;;;;;;;15.45;57.56;102742.31;2083772;28;20064;-72
2022/12/03 04:05:38;;;;;;;0.00;0.00;;;;;;;15.45;57.45;102739.59;2079107;28;20061;-72
2022/12/03 04:06:41;;;;;;;0.00;0.00;;;;;;;15.43;57.51;102737.19;2078786;28;20053;-71
2022/12/03 04:07:43;;;;;;;0.00;0.00;;;;;;;15.45;57.35;102736.88;2081919;28;20537;-72
2022/12/03 04:08:46;;;;;;;0.00;0.00;;;;;;;15.44;57.32;102738.81;2090336;28;20516;-72
2022/12/03 04:09:48;;;;;;;0.00;0.00;;;;;;;15.44;57.43;102738.00;2091748;28;20079;-71
2022/12/03 04:13:32;;;;;;;0.00;0.00;;;;;;;15.36;57.55;102731.44;2080448;28;20089;-71
2022/12/03 04:14:35;;;;;;;0.00;0.00;;;;;;;15.41;57.51;102739.47;2088044;28;20053;-71
2022/12/03 04:15:38;;;;;;;0.00;0.00;;;;;;;15.40;57.63;102743.28;2089149;28;20456;-71
2022/12/03 04:16:39;;;;;;;0.00;0.00;;;;;;;15.41;57.66;102727.78;2083476;28;20061;-72
2022/12/03 04:17:42;;;;;;;0.00;0.00;;;;;;;15.41;57.29;102730.50;2078028;28;20137;-71
2022/12/03 04:18:44;;;;;;;0.00;0.00;;;;;;;15.40;57.42;102732.41;2085052;28;20056;-71
2022/12/03 04:19:47;;;;;;;0.00;0.00;;;;;;;15.40;57.59;102737.84;2090899;28;20053;-71
2022/12/03 04:20:49;;;;;;;0.00;0.00;;;;;;;15.40;57.44;102732.41;2095235;28;20479;-71
2022/12/03 04:23:12;;;;;;;0.00;0.00;;;;;;;15.38;57.50;102731.13;2084557;28;20052;-71
2022/12/03 04:24:14;;;;;;;0.00;0.00;;;;;;;15.39;57.46;102735.47;2088377;28;20061;-72
2022/12/03 04:29:22;;;;;;;0.00;0.00;;;;;;;15.32;57.85;102727.75;2094671;28;20052;-71
2022/12/03 04:30:25;;;;;;;0.00;0.00;;;;;;;15.35;57.79;102721.66;2086726;28;20440;-71
2022/12/03 04:35:42;;;;;;;0.00;0.00;;;;;;;15.25;57.70;102727.47;2087300;28;20057;-71
2022/12/03 04:36:44;;;;;;;0.00;0.00;;;;;;;15.26;57.72;102729.06;2088577;28;20053;-71
2022/12/03 04:37:47;;;;;;;0.00;0.00;;;;;;;15.28;57.65;102724.09;2092357;28;20505;-71
2022/12/03 04:38:49;;;;;;;0.00;0.00;;;;;;;15.30;57.68;102718.34;2090296;28;20091;-71
2022/12/03 04:39:52;;;;;;;0.00;0.00;;;;;;;15.29;57.85;102722.97;2073211;28;20057;-70
2022/12/03 04:40:59;;;;;;;0.00;0.00;;;;;;;15.31;57.77;102722.66;2060400;28;20054;-71
2022/12/03 04:42:02;;;;;;;0.00;0.00;;;;;;;15.30;57.61;102721.84;2080575;28;20103;-71
2022/12/03 04:43:04;;;;;;;0.00;0.00;;;;;;;15.31;57.59;102720.72;2085045;28;20052;-71
2022/12/03 04:45:29;;;;;;;0.00;0.00;;;;;;;15.30;57.76;102715.63;2082346;28;20433;-71
2022/12/03 04:46:31;;;;;;;0.00;0.00;;;;;;;15.30;57.65;102715.63;2090531;28;20120;-70
2022/12/03 04:47:34;;;;;;;0.00;0.00;;;;;;;15.31;57.91;102711.75;2092217;28;20055;-70
2022/12/03 04:48:40;;;;;;;0.00;0.00;;;;;;;15.30;57.64;102710.94;2072465;28;20050;-70
2022/12/03 04:49:45;;;;;;;0.00;0.00;;;;;;;15.33;57.86;102714.97;2076124;28;20053;-70
2022/12/03 04:50:47;;;;;;;0.00;0.00;;;;;;;15.31;57.55;102718.00;2082063;28;20053;-71
2022/12/03 04:51:49;;;;;;;0.00;0.00;;;;;;;15.32;57.90;102722.31;2083488;28;20052;-71
2022/12/03 04:52:52;;;;;;;0.00;0.00;;;;;;;15.31;57.68;102717.19;2088518;28;20056;-70
2022/12/03 04:53:54;;;;;;;0.00;0.00;;;;;;;15.32;57.58;102719.59;2079399;28;20544;-71
2022/12/03 04:54:56;;;;;;;0.00;0.00;;;;;;;15.31;57.66;102720.72;2063254;28;20054;-71
2022/12/03 04:55:59;;;;;;;0.00;0.00;;;;;;;15.33;57.72;102715.78;2062794;28;20065;-71
2022/12/03 04:57:02;;;;;;;0.00;0.00;;;;;;;15.32;57.52;102718.81;2080012;28;20181;-71
2022/12/03 04:58:04;;;;;;;0.00;0.00;;;;;;;15.32;57.79;102719.59;2097105;28;20064;-71
2022/12/03 04:59:06;;;;;;;0.00;0.00;;;;;;;15.32;57.74;102714.16;2082691;28;20061;-71
2022/12/03 05:00:17;;;;;;;0.00;0.00;;;;;;;15.32;57.67;102716.88;2085745;28;20042;-71
2022/12/03 05:01:21;;;;;;;0.00;0.00;;;;;;;15.33;57.48;102715.78;2083136;28;20069;-71
2022/12/03 05:02:24;;;;;;;0.00;0.00;;;;;;;15.33;57.53;102715.78;2072629;28;20065;-71
2022/12/03 05:03:25;;;;;;;0.00;0.00;;;;;;;15.33;57.58;102714.97;2083376;28;20053;-71
2022/12/03 05:04:28;;;;;;;0.00;0.00;;;;;;;15.31;57.63;102706.31;2097084;28;20048;-71
2022/12/03 05:05:30;;;;;;;0.00;0.00;;;;;;;15.33;57.69;102709.53;2090069;28;20064;-71
2022/12/03 05:06:48;;;;;;;0.00;0.00;;;;;;;15.30;57.86;102712.91;2053673;28;20789;-71
2022/12/03 05:07:50;;;;;;;0.00;0.00;;;;;;;15.31;57.44;102715.28;2065692;28;20533;-71
2022/12/03 05:08:52;;;;;;;0.00;0.00;;;;;;;15.32;57.72;102714.16;2082851;28;20110;-71
2022/12/03 05:09:55;;;;;;;0.00;0.00;;;;;;;15.32;57.73;102714.16;2095911;28;20060;-71
2022/12/03 05:10:57;;;;;;;0.00;0.00;;;;;;;15.32;57.69;102708.72;2097068;28;20060;-70